Tiempo atmosférico en la estación meteorológica de Aguilar De Campoo, Palencia (910 m.)



Fecha
DESCASC
Temp. máxima en grados centígrados (hora)
DESCASC
Temp. mínima en grados centígrados (hora)
DESCASC
Temp. media en grados centígrados
DESCASC
Racha de viento máxima en m/sg (hora)
DESCASC
Velocidad máxima media en intervalos de 10 minutos(hora)
DESCASC
Precipitaciones diarias en mm
DESCASC
Precipitaciones de 00:00 a 06:00 en mm
DESCASC
Precipitaciones de 06:00 a 12:00 en mm
DESCASC
Precipitaciones de 12:00 a 18:00 en mm
DESCASC
Precipitaciones de 18:00 a 24:00 en mm
DESCASC
20-09-2018 28.7 (16:20) 10.2 (08:50) 19.5 11.67 (13:40) 5 (13:40) 0 0 0 0 0
19-09-2018 28.3 (15:50) 10.6 (05:10) 19.4 8.61 (19:20) 4.17 (19:20) 0 0 0 0 0
18-09-2018 28.4 (17:30) 11.4 (08:10) 19.9 11.67 (18:20) 6.11 (18:40) 0.2 0.2 0 0 0
17-09-2018 29.4 (17:30) 8.4 (08:00) 18.9 7.5 (16:50) 3.89 (15:20) 0 0 0 0 0
16-09-2018 29.1 (15:50) 9.7 (00:00) 19.4 8.61 (19:10) 4.72 (19:20) 0 0 0 0 0
15-09-2018 29 (17:20) 10.7 (00:00) 19.8 6.94 (00:30) 3.89 (00:10) 0 0 0 0 0
14-09-2018 25.8 (16:30) 9.6 (00:00) 17.7 10.28 (16:50) 5 (17:30) 0 0 0 0 0
13-09-2018 23.4 (15:40) 12.6 (00:00) 18 10.28 (18:10) 5.56 (17:10) 0 0 0 0 0
12-09-2018 28 (15:20) 9.9 (00:00) 18.9 10.83 (19:30) 5.83 (20:00) 0 0 0 0 0
11-09-2018 27.8 (17:30) 7.6 (00:00) 17.7 8.33 (19:10) 4.17 (18:50) 0 0 0 0 0
10-09-2018 24.1 (17:00) 9.1 (00:00) 16.6 8.61 (12:30) 4.17 (17:20) 0 0 0 0 0
09-09-2018 22.7 (13:50) 12.7 (00:00) 17.7 6.94 (18:40) 3.89 (18:40) 13.2 1.8 0 11.4 0
08-09-2018 26.7 (15:50) 8.1 (00:00) 17.4 8.06 (18:40) 3.61 (19:10) 0 0 0 0 0
07-09-2018 20.6 (17:10) 7.6 (00:00) 14.1 8.33 (18:20) 4.44 (18:20) 0 0 0 0 0
06-09-2018 20.2 (17:00) 8.9 (00:00) 14.6 11.67 (13:00) 5.83 (14:10) 0 0 0 0 0
05-09-2018 18.4 (16:40) 12 (00:00) 15.2 8.61 (15:50) 4.72 (15:50) 4.4 0 4.4 0 0
04-09-2018 21.7 (16:50) 11.2 (00:00) 16.5 10.56 (12:30) 5.28 (12:10) 0 0 0 0 0
03-09-2018 23 (16:10) 11.8 (00:00) 17.4 11.67 (17:10) 6.67 (17:40) 2.8 0 2.8 0 0
02-09-2018 31.5 (16:00) 9.3 (00:00) 20.4 8.33 (16:30) 5 (22:10) 1.2 0 0 0 1.2
01-09-2018 27.2 (16:40) 9.2 (00:00) 18.2 8.06 (16:40) 4.17 (16:30) 0 0 0 0 0
31-08-2018 24.1 (17:10) 8.5 (00:00) 16.3 10.56 (18:00) 6.11 (18:00) 0 0 0 0 0
30-08-2018 22.1 (14:50) 11.3 (00:00) 16.7 10.83 (14:30) 6.39 (16:40) 0 0 0 0 0
29-08-2018 21.6 (14:00) 10.4 (00:00) 16 11.11 (17:20) 5.83 (16:20) 0 0 0 0 0
28-08-2018 29.4 (16:50) 12.5 (00:00) 20.9 11.94 (14:30) 6.11 (14:40) 8.6 0 0 0 8.6
27-08-2018 31.3 (16:30) 10.3 (00:00) 20.8 9.44 (16:50) 5 (17:10) 0 0 0 0 0
26-08-2018 28.1 (17:50) 10.1 (00:00) 19.1 8.89 (18:50) 5.83 (19:50) 0 0 0 0 0
25-08-2018 19.3 (14:40) 7 (00:00) 13.1 10.28 (12:30) 5.83 (18:30) 0 0 0 0 0

Gráficas

Temp. máximas Temp. mínimas Temp. medias Precipitaciones Rachas de viento máximas Velocidades máximas media en intervalos de 10 minutos

Datos horarios

Fecha y hora oficial Temperatura (ºC) Velocidad del viento (km/h) Dirección del viento Racha (km/h) Dirección de racha Precipitación (mm) Presión (hPa) Tendencia (hPa) Humedad (%)
2018-09-23 23:00:00 16.6 14 Sur 30 Sudeste 0 -- -- 85
2018-09-23 22:00:00 16.3 13 Sur 35 Sur 0 -- -- 86
2018-09-23 21:00:00 16.9 19 Sur 43 Sur 0 -- -- 85
2018-09-23 20:00:00 20 18 Sur 32 Sur 0 -- -- 71
2018-09-23 19:00:00 21.9 15 Sudeste 33 Sudeste 0 -- -- 68
2018-09-23 18:00:00 24.7 19 Sur 37 Sudeste 0 -- -- 61
2018-09-23 17:00:00 26.6 19 Sudeste 34 Sudeste 0 -- -- 54
2018-09-23 16:00:00 28.9 13 Sudeste 28 Sudeste 0 -- -- 47
2018-09-23 15:00:00 29.1 5 Sudeste 23 Noroeste 0 -- -- 38
2018-09-23 14:00:00 28.2 9 Noroeste 22 Noroeste 0 -- -- 40
2018-09-23 13:00:00 26.1 8 Noroeste 18 Oeste 0 -- -- 45
2018-09-23 12:00:00 22.7 4 Sur 9 Sur 0 -- -- 62
2018-09-23 11:00:00 19.5 5 Oeste 10 Noroeste 0 -- -- 76
2018-09-23 10:00:00 15 0 Calma 6 Este 0 -- -- 92
2018-09-23 09:00:00 10.7 2 Este 11 Este 0 -- -- 97
2018-09-23 08:00:00 9.9 3 Este 12 Este 0 -- -- 95
2018-09-23 07:00:00 10.4 3 Nordeste 14 Este 0 -- -- 95
2018-09-23 06:00:00 11.4 10 Este 15 Este 0 -- -- 96
2018-09-23 05:00:00 11.6 7 Este 15 Este 0 -- -- 95
2018-09-23 04:00:00 12.2 0 Calma 12 Este 0 -- -- 92
2018-09-23 03:00:00 13 9 Este 14 Este 0 -- -- 92
2018-09-23 02:00:00 14 2 Nordeste 12 Este 0 -- -- 91
2018-09-23 01:00:00 15.1 6 Este 10 Este 0 -- -- 88
2018-09-23 00:00:00 17 4 Sudeste 13 Sur 0 -- -- 82
2018-09-22 23:00:00 18.3 6 Sur 21 Sur 0 -- -- 80
2018-09-22 22:00:00 18.8 9 Sur 21 Sudeste 0 -- -- 78
2018-09-22 21:00:00 20.2 10 Sur 28 Sur 0 -- -- 72
2018-09-22 20:00:00 22.5 14 Sudeste 27 Sudeste 0 -- -- 64
2018-09-22 19:00:00 24.8 18 Sur 30 Sur 0 -- -- 57
2018-09-22 18:00:00 27.2 14 Sudeste 27 Sur 0 -- -- 51
2018-09-22 17:00:00 28.7 6 Sudoeste 17 Oeste 0 -- -- 39
2018-09-22 16:00:00 28.4 5 Sudoeste 18 Norte 0 -- -- 41
2018-09-22 15:00:00 27.3 6 Sur 18 Oeste 0 -- -- 44
2018-09-22 14:00:00 26.1 5 Noroeste 18 Oeste 0 -- -- 47
2018-09-22 13:00:00 23.6 6 Oeste 14 Oeste 0 -- -- 54
2018-09-22 12:00:00 20.1 4 Sudoeste 9 Sudoeste 0 -- -- 65
2018-09-22 11:00:00 17 4 Noroeste 12 Noroeste 0 -- -- 76
2018-09-22 10:00:00 14.3 5 Norte 11 Norte 0 -- -- 87
2018-09-22 09:00:00 12.7 5 Nordeste 10 Nordeste 0 -- -- 94
2018-09-22 08:00:00 13 5 Este 9 Sudeste 0 -- -- 95
2018-09-22 07:00:00 13.6 0 Calma 9 Sudeste 0 -- -- 93
2018-09-22 06:00:00 13.8 4 Sudeste 7 Este 0 -- -- 93
2018-09-22 05:00:00 13.8 5 Sudeste 9 Sudeste 0 -- -- 93
2018-09-22 04:00:00 13.9 4 Este 10 Este 0 -- -- 92
2018-09-22 03:00:00 14.2 5 Este 13 Sudeste 0 -- -- 90
2018-09-22 02:00:00 14.4 6 Sudeste 20 Sur 0 -- -- 91
2018-09-22 01:00:00 14.4 10 Sur 20 Sudeste 0 -- -- 90
2018-09-22 00:00:00 14.2 3 Sudeste 17 Sudeste 0 -- -- 90
2018-09-21 23:00:00 14.7 8 Sur 23 Sur 0 -- -- 90
2018-09-21 22:00:00 14.9 14 Sur 23 Sur 0 -- -- 92
2018-09-21 21:00:00 15.1 8 Sur 34 Sudeste 0 -- -- 91
2018-09-21 20:00:00 16.2 19 Sur 31 Sudeste 0 -- -- 86
2018-09-21 19:00:00 18.9 16 Sur 30 Sur 0 -- -- 73
2018-09-21 18:00:00 21.8 11 Sudeste 31 Sur 0 -- -- 61
2018-09-21 17:00:00 24.3 10 Sudeste 23 Sudeste 0 -- -- 42
2018-09-21 16:00:00 24 6 Sur 15 Sudoeste 0 -- -- 42
2018-09-21 15:00:00 22.8 6 Sudoeste 14 Sur 0 -- -- 46
2018-09-21 14:00:00 21.6 5 Sur 20 Sur 0 -- -- 51
2018-09-21 13:00:00 20.6 8 Sur 19 Sur 0 -- -- 57
2018-09-21 12:00:00 18 6 Sudoeste 11 Sudoeste 0 -- -- 66
2018-09-21 11:00:00 14 2 Sudoeste 9 Este 0 -- -- 78
2018-09-21 10:00:00 10 5 Este 13 Este 0 -- -- 89
2018-09-21 09:00:00 8 2 Norte 13 Sudeste 0 -- -- 94
2018-09-21 08:00:00 7.4 4 Este 13 Este 0 -- -- 92
2018-09-21 07:00:00 7.6 2 Este 14 Este 0 -- -- 90
2018-09-21 06:00:00 8.4 0 Calma 15 Este 0 -- -- 89
2018-09-21 05:00:00 9.4 0 Calma 15 Este 0 -- -- 86
2018-09-21 04:00:00 10.6 6 Este 11 Este 0 -- -- 86
2018-09-21 03:00:00 11.3 9 Este 14 Este 0 -- -- 83
2018-09-21 02:00:00 12.4 3 Este 12 Este 0 -- -- 79
2018-09-21 01:00:00 13.8 4 Este 8 Este 0 -- -- 75
2018-09-21 00:00:00 16 3 Sudeste 23 Sudeste 0 -- -- 68
2018-09-20 23:00:00 17.2 9 Sur 20 Sur 0 -- -- 63
2018-09-20 22:00:00 16.6 3 Sudeste 10 Este 0 -- -- 66
2018-09-20 21:00:00 19.9 0 Calma 7 Noroeste 0 -- -- 59
2018-09-20 20:00:00 24.1 4 Norte 21 Norte 0 -- -- 47
2018-09-20 19:00:00 26.7 10 Norte 27 Norte 0 -- -- 37
2018-09-20 18:00:00 28.1 17 Norte 36 Norte 0 -- -- 35
2018-09-20 17:00:00 28.6 15 Norte 33 Norte 0 -- -- 32
2018-09-20 16:00:00 28.5 17 Norte 33 Norte 0 -- -- 33
2018-09-20 15:00:00 28.3 15 Noroeste 33 Norte 0 -- -- 35
2018-09-20 14:00:00 27.5 13 Noroeste 42 Norte 0 -- -- 34
2018-09-20 13:00:00 25.6 13 Noroeste 22 Oeste 0 -- -- 47
2018-09-20 12:00:00 22.1 5 Noroeste 18 Oeste 0 -- -- 61
2018-09-20 11:00:00 17.9 4 Sudoeste 11 Noroeste 0 -- -- 78
2018-09-20 10:00:00 13.8 4 Noroeste 9 Este 0 -- -- 92
2018-09-20 09:00:00 10.3 9 Este 12 Este 0 -- -- 99
2018-09-20 08:00:00 11.3 10 Este 13 Este 0 -- -- 99
2018-09-20 07:00:00 12.3 6 Este 13 Este 0 -- -- 99
2018-09-20 06:00:00 12.6 9 Este 13 Este 0 -- -- 98
2018-09-20 05:00:00 13.3 6 Este 10 Este 0 -- -- 98
2018-09-20 04:00:00 13.4 4 Este 13 Sudeste 0 -- -- 97
2018-09-20 03:00:00 14.2 8 Este 10 Este 0 -- -- 95
2018-09-20 02:00:00 14.6 4 Sudeste 12 Sudeste 0 -- -- 94
2018-09-20 01:00:00 14.9 6 Sur 12 Sudoeste 0 -- -- 95
2018-09-20 00:00:00 15 2 Sur 17 Sur 0 -- -- 92
2018-09-19 23:00:00 15.8 5 Sur 24 Sudeste 0 -- -- 92
2018-09-19 22:00:00 16.3 12 Sur 27 Sur 0 -- -- 88
2018-09-19 21:00:00 17.8 12 Sudeste 30 Sudeste 0 -- -- 82
2018-09-19 20:00:00 21.1 12 Sudeste 31 Sur 0 -- -- 70
2018-09-19 19:00:00 25.6 10 Sudeste 18 Sur 0 -- -- 52
2018-09-19 18:00:00 28.1 9 Noroeste 23 Norte 0 -- -- 36
2018-09-19 17:00:00 28.3 12 Noroeste 22 Norte 0 -- -- 37
2018-09-19 16:00:00 28.3 8 Noroeste 26 Noroeste 0 -- -- 37
2018-09-19 15:00:00 27.3 9 Noroeste 24 Noroeste 0 -- -- 39
2018-09-19 14:00:00 26.4 11 Noroeste 28 Oeste 0 -- -- 46
2018-09-19 13:00:00 24.2 8 Oeste 19 Oeste 0 -- -- 52
2018-09-19 12:00:00 20.9 8 Oeste 15 Oeste 0 -- -- 65
2018-09-19 11:00:00 17.4 4 Sudoeste 8 Sudoeste 0 -- -- 82
2018-09-19 10:00:00 14.6 2 Sur 6 Sur 0 -- -- 92
2018-09-19 09:00:00 12.3 3 Este 10 Este 0 -- -- 99
2018-09-19 08:00:00 11.5 9 Este 12 Este 0 -- -- 98
2018-09-19 07:00:00 10.7 6 Este 14 Este 0 -- -- 97
2018-09-19 06:00:00 11.2 4 Este 15 Este 0 -- -- 97
2018-09-19 05:00:00 10.8 12 Este 16 Este 0 -- -- 96
2018-09-19 04:00:00 11.7 2 Norte 13 Este 0 -- -- 96
2018-09-19 03:00:00 12.5 7 Este 15 Este 0 -- -- 95
2018-09-19 02:00:00 13.2 9 Este 15 Sudeste 0 -- -- 93
2018-09-19 01:00:00 14.7 7 Sudeste 15 Sur 0 -- -- 95
2018-09-19 00:00:00 15 6 Sudeste 15 Sur 0 -- -- 94
2018-09-18 23:00:00 15.2 8 Sudeste 20 Sur 0 -- -- 93
2018-09-18 22:00:00 15.5 12 Sudeste 27 Sudeste 0 -- -- 92
2018-09-18 21:00:00 16.2 15 Sudeste 29 Sudeste 0 -- -- 90
2018-09-18 20:00:00 17.5 16 Sur 36 Sudeste 0 -- -- 86
2018-09-18 19:00:00 19.8 20 Sur 42 Sur 0 -- -- 76
2018-09-18 18:00:00 24.7 19 Sudeste 34 Sudeste 0 -- -- 58
2018-09-18 17:00:00 28.2 8 Noroeste 25 Noroeste 0 -- -- 32
2018-09-18 16:00:00 27.8 10 Noroeste 23 Noroeste 0 -- -- 36
2018-09-18 15:00:00 27.2 13 Noroeste 27 Oeste 0 -- -- 37
2018-09-18 14:00:00 25.5 8 Norte 18 Norte 0 -- -- 49
2018-09-18 13:00:00 23.1 5 Noroeste 12 Noroeste 0 -- -- 60
2018-09-18 12:00:00 20.5 4 Sur 10 Sudoeste 0 -- -- 68
2018-09-18 11:00:00 18.3 3 Sur 8 Norte 0 -- -- 77
2018-09-18 10:00:00 15.7 0 Calma 10 Este 0 -- -- 85
2018-09-18 09:00:00 12.1 5 Este 12 Este 0 -- -- 92
2018-09-18 08:00:00 11.5 4 Este 10 Este 0 -- -- 92
2018-09-18 07:00:00 12.2 3 Este 6 Este 0 -- -- 91
2018-09-18 06:00:00 13.1 2 Este 11 Este 0 -- -- 89
2018-09-18 05:00:00 14 0 Calma 5 Nordeste 0 -- -- 90
2018-09-18 04:00:00 15.2 0 Calma 7 Este 0 -- -- 87
2018-09-18 03:00:00 15.8 3 Este 6 Norte 0.2 -- -- 85
2018-09-18 02:00:00 16.9 0 Calma 10 Sudeste 0 -- -- 74
2018-09-18 01:00:00 17.7 0 Calma 12 Sudeste 0 -- -- 70
2018-09-18 00:00:00 18.2 6 Sudeste 18 Sur 0 -- -- 68
2018-09-17 23:00:00 18.9 10 Sudeste 20 Sudeste 0 -- -- 66
2018-09-17 22:00:00 20.5 8 Sudeste 15 Sudeste 0 -- -- 63
2018-09-17 21:00:00 21.9 4 Norte 19 Oeste 0 -- -- 54
2018-09-17 20:00:00 25.2 0 Calma 12 Norte 0 -- -- 49
2018-09-17 19:00:00 27.5 4 Noroeste 17 Oeste 0 -- -- 33
2018-09-17 18:00:00 27.9 9 Noroeste 22 Norte 0 -- -- 33
2018-09-17 17:00:00 29.3 8 Noroeste 27 Oeste 0 -- -- 33
2018-09-17 16:00:00 28.7 9 Noroeste 23 Noroeste 0 -- -- 36
2018-09-17 15:00:00 28 12 Noroeste 24 Noroeste 0 -- -- 38
2018-09-17 14:00:00 27.1 11 Noroeste 22 Noroeste 0 -- -- 39
2018-09-17 13:00:00 25.1 9 Noroeste 16 Oeste 0 -- -- 49
2018-09-17 12:00:00 21.9 3 Norte 9 Oeste 0 -- -- 60
2018-09-17 11:00:00 18.3 3 Noroeste 8 Oeste 0 -- -- 72
2018-09-17 10:00:00 13.7 3 Sudeste 9 Este 0 -- -- 89
2018-09-17 09:00:00 9.4 0 Calma 4 Sudeste 0 -- -- 97
2018-09-17 08:00:00 8.4 0 Calma 5 Este 0 -- -- 95
2018-09-17 07:00:00 9.1 0 Calma 4 Este 0 -- -- 96
2018-09-17 06:00:00 9.2 0 Calma 5 Sudeste 0 -- -- 94
2018-09-17 05:00:00 10 0 Calma 10 Este 0 -- -- 93
2018-09-17 04:00:00 10.7 0 Calma 9 Este 0 -- -- 92
2018-09-17 03:00:00 12.1 7 Este 10 Este 0 -- -- 93
2018-09-17 02:00:00 12.5 8 Este 13 Este 0 -- -- 92
2018-09-17 01:00:00 13.6 2 Este 9 Este 0 -- -- 89
2018-09-17 00:00:00 15.2 2 Nordeste 12 Sur 0 -- -- 85
2018-09-16 23:00:00 16.5 6 Sur 19 Sur 0 -- -- 83
2018-09-16 22:00:00 17.6 10 Sur 19 Sur 0 -- -- 80
2018-09-16 21:00:00 18.5 10 Sur 25 Sudeste 0 -- -- 76
2018-09-16 20:00:00 18.3 15 Sur 31 Sudeste 0 -- -- 80
2018-09-16 19:00:00 21.8 16 Sudeste 29 Sur 0 -- -- 65
2018-09-16 18:00:00 26.1 10 Sudeste 21 Oeste 0 -- -- 49
2018-09-16 17:00:00 27.7 10 Noroeste 24 Noroeste 0 -- -- 34
2018-09-16 16:00:00 28.9 11 Noroeste 27 Norte 0 -- -- 35
2018-09-16 15:00:00 28.3 15 Norte 26 Noroeste 0 -- -- 37
2018-09-16 14:00:00 26.9 9 Noroeste 27 Noroeste 0 -- -- 45
2018-09-16 13:00:00 24.7 7 Oeste 17 Oeste 0 -- -- 50
2018-09-16 12:00:00 21.8 5 Noroeste 12 Oeste 0 -- -- 59
2018-09-16 11:00:00 18.6 3 Oeste 7 Oeste 0 -- -- 73
2018-09-16 10:00:00 14.9 3 Sudoeste 4 Oeste 0 -- -- 85
2018-09-16 09:00:00 10.7 0 Calma 7 Sudeste 0 -- -- 94
2018-09-16 08:00:00 9.7 0 Calma 7 Este 0 -- -- 93
2018-09-16 07:00:00 10 4 Este 9 Sudeste 0 -- -- 93
2018-09-16 06:00:00 10.3 2 Norte 7 Este 0 -- -- 92
2018-09-16 05:00:00 11 3 Nordeste 6 Este 0 -- -- 90
2018-09-16 04:00:00 12 6 Este 16 Este 0 -- -- 86
2018-09-16 03:00:00 12.7 5 Este 15 Este 0 -- -- 85
2018-09-16 02:00:00 13.3 12 Este 19 Este 0 -- -- 82
2018-09-16 01:00:00 14.7 8 Este 14 Este 0 -- -- 78
2018-09-16 00:00:00 15.9 9 Este 14 Este 0 -- -- 72
2018-09-15 23:00:00 16.2 0 Calma 5 Oeste 0 -- -- 76
2018-09-15 22:00:00 18 0 Calma 9 Sur 0 -- -- 69
2018-09-15 21:00:00 21.1 2 Este 15 Este 0 -- -- 58
2018-09-15 20:00:00 23.8 5 Sur 22 Este 0 -- -- 50
2018-09-15 19:00:00 25.9 8 Sudeste 25 Sur 0 -- -- 45
2018-09-15 18:00:00 28.7 6 Sudoeste 13 Sudoeste 0 -- -- 35
2018-09-15 17:00:00 28.8 4 Sudoeste 12 Sudoeste 0 -- -- 37
2018-09-15 16:00:00 28.2 9 Noroeste 17 Noroeste 0 -- -- 37
2018-09-15 15:00:00 27.2 6 Sudoeste 14 Sudoeste 0 -- -- 42
2018-09-15 14:00:00 24.8 6 Sur 13 Sudoeste 0 -- -- 51
2018-09-15 13:00:00 22 3 Norte 10 Noroeste 0 -- -- 58
2018-09-15 12:00:00 18.7 5 Sudoeste 9 Sudoeste 0 -- -- 69
2018-09-15 11:00:00 16 4 Sudoeste 11 Sur 0 -- -- 80
2018-09-15 10:00:00 13.6 7 Sudeste 14 Sudeste 0 -- -- 88
2018-09-15 09:00:00 11.5 6 Este 12 Este 0 -- -- 92
2018-09-15 08:00:00 11.8 7 Este 12 Este 0 -- -- 89
2018-09-15 07:00:00 13.2 7 Sudeste 14 Sur 0 -- -- 89
2018-09-15 06:00:00 13.3 8 Sur 14 Sudeste 0 -- -- 88
2018-09-15 05:00:00 14.1 9 Sur 19 Sudoeste 0 -- -- 85
2018-09-15 04:00:00 14.4 9 Sudeste 17 Sudeste 0 -- -- 87
2018-09-15 03:00:00 13.9 7 Sudeste 16 Sudeste 0 -- -- 87
2018-09-15 02:00:00 14.4 9 Sudeste 17 Sur 0 -- -- 85
2018-09-15 01:00:00 14.8 7 Sudeste 25 Sudeste 0 -- -- 87
2018-09-15 00:00:00 14.9 11 Sur 24 Sudeste 0 -- -- 89
2018-09-14 23:00:00 14.7 11 Sudeste 29 Sur 0 -- -- 92
2018-09-14 22:00:00 15.1 12 Sudeste 30 Sudeste 0 -- -- 91
2018-09-14 21:00:00 16.1 14 Sudeste 27 Sur 0 -- -- 89
2018-09-14 20:00:00 17.6 13 Sudeste 36 Sudeste 0 -- -- 84
2018-09-14 19:00:00 20.4 18 Sur 36 Sur 0 -- -- 73
2018-09-14 18:00:00 23.2 18 Sur 36 Sudeste 0 -- -- 63
2018-09-14 17:00:00 24.9 16 Sudeste 37 Sur 0 -- -- 56
2018-09-14 16:00:00 25.3 9 Sur 22 Sur 0 -- -- 52
2018-09-14 15:00:00 24.2 10 Sudoeste 18 Sudeste 0 -- -- 54
2018-09-14 14:00:00 22.8 9 Sur 23 Sudeste 0 -- -- 59
2018-09-14 13:00:00 21.5 8 Sur 20 Sur 0 -- -- 63
2018-09-14 12:00:00 19.4 9 Sudoeste 17 Sur 0 -- -- 69
2018-09-14 11:00:00 16.4 5 Sudoeste 10 Sur 0 -- -- 82
2018-09-14 10:00:00 13.1 6 Sudeste 11 Sudeste 0 -- -- 98
2018-09-14 09:00:00 10.3 2 Este 10 Este 0 -- -- 99
2018-09-14 08:00:00 10.4 2 Este 8 Este 0 -- -- 96
2018-09-14 07:00:00 11 2 Sur 8 Sudeste 0 -- -- 96
2018-09-14 06:00:00 12 3 Sur 15 Sudeste 0 -- -- 96
2018-09-14 05:00:00 12.5 7 Sur 15 Sur 0 -- -- 94
2018-09-14 04:00:00 13.1 7 Sur 14 Sudeste 0 -- -- 93
2018-09-14 03:00:00 13.3 5 Sur 12 Sur 0 -- -- 92
2018-09-14 02:00:00 13.9 6 Sur 13 Sudeste 0 -- -- 92
2018-09-14 01:00:00 13.9 5 Sur 16 Sur 0 -- -- 92
2018-09-14 00:00:00 14.4 10 Sudeste 21 Sur 0 -- -- 92
2018-09-13 23:00:00 14.7 10 Sudeste 22 Sur 0 -- -- 92
2018-09-13 22:00:00 15.2 13 Sur 26 Sudeste 0 -- -- 89
2018-09-13 21:00:00 16.1 10 Sudeste 25 Sudeste 0 -- -- 85
2018-09-13 20:00:00 18.3 13 Sudeste 30 Sur 0 -- -- 76
2018-09-13 19:00:00 20.3 14 Sudeste 37 Sudeste 0 -- -- 68
2018-09-13 18:00:00 21.8 18 Sudeste 31 Sudeste 0 -- -- 63
2018-09-13 17:00:00 22.8 16 Sudeste 30 Sudeste 0 -- -- 59
2018-09-13 16:00:00 23.2 16 Sudeste 27 Sur 0 -- -- 57
2018-09-13 15:00:00 22.8 11 Sur 30 Sudeste 0 -- -- 59
2018-09-13 14:00:00 21.6 10 Sur 19 Sudeste 0 -- -- 61
2018-09-13 13:00:00 20.2 11 Sudeste 22 Sudeste 0 -- -- 66
2018-09-13 12:00:00 18.5 14 Sur 26 Sur 0 -- -- 71
2018-09-13 11:00:00 17.2 8 Sur 23 Sudeste 0 -- -- 79
2018-09-13 10:00:00 14.2 4 Este 12 Sudeste 0 -- -- 93
2018-09-13 09:00:00 13.5 6 Este 16 Este 0 -- -- 92
2018-09-13 08:00:00 14.8 7 Sur 16 Sudeste 0 -- -- 91
2018-09-13 07:00:00 13.7 5 Sudeste 11 Este 0 -- -- 94
2018-09-13 06:00:00 12.8 6 Este 11 Este 0 -- -- 94
2018-09-13 05:00:00 12.9 8 Este 14 Este 0 -- -- 92
2018-09-13 04:00:00 15.2 4 Sudeste 9 Sur 0 -- -- 90
2018-09-13 03:00:00 15.7 5 Sur 17 Sur 0 -- -- 87
2018-09-13 02:00:00 15.8 10 Sur 20 Sur 0 -- -- 88
2018-09-13 01:00:00 15.9 9 Sur 23 Sudeste 0 -- -- 89
2018-09-13 00:00:00 16.1 10 Sur 26 Sudeste 0 -- -- 88
2018-09-12 23:00:00 16.1 12 Sur 29 Sudeste 0 -- -- 88
2018-09-12 22:00:00 16.3 15 Sur 31 Sudeste 0 -- -- 89
2018-09-12 21:00:00 16.9 17 Sur 34 Sur 0 -- -- 88
2018-09-12 20:00:00 18.9 21 Sudeste 39 Sur 0 -- -- 80
2018-09-12 19:00:00 22.5 17 Sur 32 Sur 0 -- -- 67
2018-09-12 18:00:00 25.3 16 Sur 31 Sudeste 0 -- -- 57
2018-09-12 17:00:00 26.5 18 Sur 31 Sur 0 -- -- 51
2018-09-12 16:00:00 27.2 7 Sudeste 18 Este 0 -- -- 44
2018-09-12 15:00:00 27.1 6 Sur 14 Norte 0 -- -- 43
2018-09-12 14:00:00 25.9 3 Noroeste 12 Noroeste 0 -- -- 47
2018-09-12 13:00:00 23.6 3 Norte 12 Norte 0 -- -- 54
2018-09-12 12:00:00 20.9 2 Nordeste 12 Sudoeste 0 -- -- 65
2018-09-12 11:00:00 18.4 5 Norte 9 Noroeste 0 -- -- 72
2018-09-12 10:00:00 15.2 3 Norte 14 Este 0 -- -- 84
2018-09-12 09:00:00 11.2 10 Este 14 Este 0 -- -- 92
2018-09-12 08:00:00 10.1 2 Sudeste 20 Este 0 -- -- 91
2018-09-12 07:00:00 10.4 2 Este 13 Este 0 -- -- 93
2018-09-12 06:00:00 10.7 13 Este 18 Sudeste 0 -- -- 92
2018-09-12 05:00:00 10.7 0 Calma 7 Este 0 -- -- 90
2018-09-12 04:00:00 11.4 8 Este 14 Este 0 -- -- 89
2018-09-12 03:00:00 11.3 0 Calma 9 Este 0 -- -- 88
2018-09-12 02:00:00 12.2 9 Este 14 Este 0 -- -- 85
2018-09-12 01:00:00 13.2 6 Este 12 Este 0 -- -- 83
2018-09-12 00:00:00 13.7 3 Nordeste 9 Este 0 -- -- 82
2018-09-11 23:00:00 14.9 3 Norte 9 Este 0 -- -- 77
2018-09-11 22:00:00 17 5 Nordeste 13 Este 0 -- -- 70
2018-09-11 21:00:00 19.6 0 Calma 12 Sudoeste 0 -- -- 62
2018-09-11 20:00:00 22.4 8 Sudoeste 30 Sudoeste 0 -- -- 50
2018-09-11 19:00:00 25.3 12 Sudeste 27 Este 0 -- -- 48
2018-09-11 18:00:00 27.4 6 Sur 13 Oeste 0 -- -- 36
2018-09-11 17:00:00 27.5 8 Sudoeste 16 Sudeste 0 -- -- 36
2018-09-11 16:00:00 27.2 8 Sudoeste 15 Oeste 0 -- -- 40
2018-09-11 15:00:00 26.2 4 Sudoeste 13 Oeste 0 -- -- 42
2018-09-11 14:00:00 25.2 7 Oeste 16 Oeste 0 -- -- 49
2018-09-11 13:00:00 23.1 3 Sudeste 10 Noroeste 0 -- -- 60
2018-09-11 12:00:00 21.3 4 Norte 10 Noroeste 0 -- -- 66
2018-09-11 11:00:00 18 6 Noroeste 11 Noroeste 0 -- -- 73
2018-09-11 10:00:00 13 0 Calma 3 Sudeste 0 -- -- 93
2018-09-11 09:00:00 8.8 0 Calma 6 Sudeste 0 -- -- 98
2018-09-11 08:00:00 7.8 0 Calma 8 Este 0 -- -- 96
2018-09-11 07:00:00 8 2 Este 9 Este 0 -- -- 96
2018-09-11 06:00:00 8.4 2 Norte 10 Este 0 -- -- 96
2018-09-11 05:00:00 8.8 2 Este 10 Este 0 -- -- 94
2018-09-11 04:00:00 9.9 8 Este 13 Este 0 -- -- 95
2018-09-11 03:00:00 10.4 0 Calma 14 Este 0 -- -- 94
2018-09-11 02:00:00 11.2 0 Calma 11 Este 0 -- -- 93
2018-09-11 01:00:00 12.3 9 Este 12 Este 0 -- -- 92
2018-09-11 00:00:00 14 2 Este 6 Este 0 -- -- 92
2018-09-10 23:00:00 15.7 0 Calma 12 Sudeste 0 -- -- 89
2018-09-10 22:00:00 16.9 7 Sudeste 17 Sudeste 0 -- -- 87
2018-09-10 21:00:00 18.9 8 Sudeste 19 Sudeste 0 -- -- 79
2018-09-10 20:00:00 21.3 10 Sudeste 22 Sudeste 0 -- -- 65
2018-09-10 19:00:00 22.6 12 Sudeste 26 Sudeste 0 -- -- 60
2018-09-10 18:00:00 23.5 13 Sur 31 Sudeste 0 -- -- 55
2018-09-10 17:00:00 24.1 14 Sur 28 Sudeste 0 -- -- 53
2018-09-10 16:00:00 23.4 10 Sudeste 25 Sudeste 0 -- -- 55
2018-09-10 15:00:00 22 10 Sur 22 Sudoeste 0 -- -- 60
2018-09-10 14:00:00 20.5 9 Sudoeste 24 Sur 0 -- -- 67
2018-09-10 13:00:00 18.7 9 Sudeste 31 Sur 0 -- -- 73
2018-09-10 12:00:00 17.9 14 Sur 26 Sur 0 -- -- 72
2018-09-10 11:00:00 16.5 10 Sudeste 20 Sudeste 0 -- -- 83
2018-09-10 10:00:00 13.9 3 Sur 11 Este 0 -- -- 98
2018-09-10 09:00:00 9.9 4 Este 15 Este 0 -- -- 98
2018-09-10 08:00:00 9.7 4 Este 6 Sudeste 0 -- -- 97
2018-09-10 07:00:00 9.8 5 Este 12 Este 0 -- -- 96
2018-09-10 06:00:00 10.7 4 Este 10 Este 0 -- -- 96
2018-09-10 05:00:00 11.7 0 Calma 10 Sudeste 0 -- -- 94
2018-09-10 04:00:00 13 5 Sudeste 10 Sudeste 0 -- -- 94
2018-09-10 03:00:00 13.8 5 Sudeste 19 Sur 0 -- -- 93
2018-09-10 02:00:00 14.4 3 Sudeste 12 Sudeste 0 -- -- 89
2018-09-10 01:00:00 14.8 2 Norte 9 Este 0 -- -- 91
2018-09-10 00:00:00 14.4 5 Sudeste 18 Sur 0 -- -- 93
2018-09-09 23:00:00 14.5 6 Sur 13 Sudeste 0 -- -- 92
2018-09-09 22:00:00 15.1 4 Sudeste 18 Sur 0 -- -- 91
2018-09-09 21:00:00 16.1 8 Sudeste 16 Sudeste 0 -- -- 85
2018-09-09 20:00:00 17.6 6 Sudeste 17 Sur 0 -- -- 84
2018-09-09 19:00:00 18.7 6 Sudeste 25 Sur 0 -- -- 80
2018-09-09 18:00:00 20.4 8 Sudeste 17 Sudeste 0 -- -- 65
2018-09-09 17:00:00 20.6 8 Sudoeste 18 Sudeste 0.2 -- -- 65
2018-09-09 16:00:00 17.6 8 Sur 15 Sudeste 0 -- -- 83
2018-09-09 15:00:00 15.4 2 Sudeste 20 Sudeste 11.2 -- -- 90
2018-09-09 14:00:00 22.3 6 Este 18 Sur 0 -- -- 58
2018-09-09 13:00:00 20.6 5 Sudoeste 13 Sudoeste 0 -- -- 67
2018-09-09 12:00:00 17.7 2 Sudoeste 6 Sudoeste 0 -- -- 77
2018-09-09 11:00:00 16.2 0 Calma 6 Noroeste 0 -- -- 90
2018-09-09 10:00:00 14.5 3 Sudoeste 9 Sudoeste 0 -- -- 94
2018-09-09 09:00:00 13.3 6 Este 9 Este 0 -- -- 97
2018-09-09 08:00:00 12.7 0 Calma 5 Nordeste 0 -- -- 96
2018-09-09 07:00:00 13 3 Este 11 Este 0 -- -- 96
2018-09-09 06:00:00 13.4 4 Este 8 Este 0 -- -- 95
2018-09-09 05:00:00 14 3 Este 13 Noroeste 0 -- -- 94
2018-09-09 04:00:00 14.1 13 Este 22 Sudeste 1.4 -- -- 93
2018-09-09 03:00:00 15.2 3 Oeste 10 Sudoeste 0.4 -- -- 86
2018-09-09 02:00:00 14.8 0 Calma 10 Este 0 -- -- 82
2018-09-09 01:00:00 15.6 5 Este 13 Este 0 -- -- 76
2018-09-09 00:00:00 16.6 3 Sudoeste 13 Sudeste 0 -- -- 69
2018-09-08 23:00:00 17.6 3 Sudeste 9 Sudeste 0 -- -- 71
2018-09-08 22:00:00 18.9 4 Sudeste 15 Sur 0 -- -- 67
2018-09-08 21:00:00 20.3 5 Sudoeste 16 Sudoeste 0 -- -- 60
2018-09-08 20:00:00 22.4 8 Sudoeste 22 Oeste 0 -- -- 55
2018-09-08 19:00:00 24.5 12 Oeste 29 Oeste 0 -- -- 44
2018-09-08 18:00:00 26.3 9 Oeste 22 Oeste 0 -- -- 34
2018-09-08 17:00:00 25.8 11 Oeste 25 Noroeste 0 -- -- 38
2018-09-08 16:00:00 26.5 9 Oeste 23 Sudoeste 0 -- -- 36
2018-09-08 15:00:00 25.9 5 Oeste 16 Oeste 0 -- -- 43
2018-09-08 14:00:00 24.3 9 Norte 20 Noroeste 0 -- -- 48
2018-09-08 13:00:00 22.8 9 Noroeste 18 Norte 0 -- -- 54
2018-09-08 12:00:00 20 6 Sudoeste 13 Oeste 0 -- -- 65
2018-09-08 11:00:00 15.6 5 Sur 10 Sur 0 -- -- 83
2018-09-08 10:00:00 13.2 4 Sur 8 Oeste 0 -- -- 90
2018-09-08 09:00:00 9.9 3 Sur 12 Este 0 -- -- 98
2018-09-08 08:00:00 8.2 3 Sur 9 Nordeste 0 -- -- 97
2018-09-08 07:00:00 8.3 5 Este 9 Este 0 -- -- 97
2018-09-08 06:00:00 8.7 0 Calma 13 Este 0 -- -- 96
2018-09-08 05:00:00 8.7 3 Este 13 Este 0 -- -- 96
2018-09-08 04:00:00 9.2 9 Este 14 Sudeste -- -- -- 96
2018-09-08 03:00:00 10 2 Norte 6 Este 0 -- -- 93
2018-09-08 02:00:00 11.1 2 Nordeste 6 Nordeste 0 -- -- 94
2018-09-08 01:00:00 12.2 0 Calma 12 Sudeste 0 -- -- 92
2018-09-08 00:00:00 13 8 Sudeste 15 Sur 0 -- -- 92
2018-09-07 23:00:00 13.5 12 Sudeste 22 Sur 0 -- -- 89
2018-09-07 22:00:00 14 9 Sudeste 20 Sur 0 -- -- 87
2018-09-07 21:00:00 15.3 10 Sudeste 22 Sudeste 0 -- -- 81
2018-09-07 20:00:00 17.8 10 Sur 26 Sudeste 0 -- -- 73
2018-09-07 19:00:00 19.2 14 Sur 30 Sur 0 -- -- 60
2018-09-07 18:00:00 20.2 13 Sudeste 28 Sudeste 0 -- -- 59
2018-09-07 17:00:00 20.2 15 Sur 28 Sur 0 -- -- 57
2018-09-07 16:00:00 20.3 11 Sur 28 Sudeste 0 -- -- 55
2018-09-07 15:00:00 20.1 12 Sur 23 Sur 0 -- -- 58
2018-09-07 14:00:00 17.6 13 Sudeste 29 Sur 0 -- -- 65
2018-09-07 13:00:00 17.5 11 Sur 23 Sudeste 0 -- -- 64
2018-09-07 12:00:00 15.3 12 Sur 26 Sudeste 0 -- -- 75
2018-09-07 11:00:00 15 13 Sur 26 Sudeste 0 -- -- 77
2018-09-07 10:00:00 13.7 8 Sur 16 Sudoeste 0 -- -- 88
2018-09-07 09:00:00 9.9 2 Este 9 Este 0 -- -- 97
2018-09-07 08:00:00 8 5 Este 11 Este 0 -- -- 97
2018-09-07 07:00:00 7.9 9 Este 12 Sudeste 0 -- -- 95
2018-09-07 06:00:00 10.2 5 Este 10 Sudeste 0 -- -- 95
2018-09-07 05:00:00 11.6 3 Sudeste 15 Sudeste 0 -- -- 94
2018-09-07 04:00:00 12.2 4 Sudeste 10 Sudeste 0 -- -- 92
2018-09-07 03:00:00 11.9 4 Sudeste 9 Este 0 -- -- 94
2018-09-07 02:00:00 12.3 3 Sudeste 14 Sudeste 0 -- -- 91
2018-09-07 01:00:00 12.2 4 Sudeste 9 Sudeste 0 -- -- 91
2018-09-07 00:00:00 12.6 4 Sudeste 18 Sudeste 0 -- -- 87
2018-09-06 23:00:00 13.1 7 Sur 16 Sur 0 -- -- 85
2018-09-06 22:00:00 13.7 10 Sur 25 Sur 0 -- -- 85
2018-09-06 21:00:00 14.2 12 Sur 26 Sur 0 -- -- 83
2018-09-06 20:00:00 15.2 12 Sur 34 Sur 0 -- -- 79
2018-09-06 19:00:00 16.8 18 Sur 39 Sur 0 -- -- 76
2018-09-06 18:00:00 18.6 18 Sur 36 Sudeste 0 -- -- 68
2018-09-06 17:00:00 20.2 13 Sudeste 37 Sur 0 -- -- 62
2018-09-06 16:00:00 19.3 17 Sudeste 41 Sur 0 -- -- 65
2018-09-06 15:00:00 19.2 19 Sudeste 40 Sudeste 0 -- -- 63
2018-09-06 14:00:00 19.8 19 Sur 36 Sur 0 -- -- 62
2018-09-06 13:00:00 18.8 20 Sur 42 Sur 0 -- -- 65
2018-09-06 12:00:00 18.3 9 Sur 17 Sudeste 0 -- -- 69
2018-09-06 11:00:00 16 8 Sur 18 Sur 0 -- -- 77
2018-09-06 10:00:00 13.6 2 Sur 10 Sudeste 0 -- -- 92
2018-09-06 09:00:00 9.8 2 Este 13 Este 0 -- -- 98
2018-09-06 08:00:00 9.2 0 Calma 7 Este 0 -- -- 96
2018-09-06 07:00:00 10.1 7 Este 9 Este 0 -- -- 96
2018-09-06 06:00:00 11 0 Calma 5 Sur 0 -- -- 93
2018-09-06 05:00:00 12.2 3 Este 12 Sur 0 -- -- 92
2018-09-06 04:00:00 12.5 5 Sudeste 17 Este 0 -- -- 93
2018-09-06 03:00:00 12.2 6 Sudeste 11 Este 0 -- -- 94
2018-09-06 02:00:00 12.8 0 Calma 13 Sur 0 -- -- 91
2018-09-06 01:00:00 13.5 6 Sudeste 19 Sur 0 -- -- 92
2018-09-06 00:00:00 13.4 5 Sudeste 14 Sur 0 -- -- 94
2018-09-05 23:00:00 13.4 8 Sur 24 Sur 0 -- -- 93
2018-09-05 22:00:00 13.7 13 Sur 27 Sudeste 0 -- -- 92
2018-09-05 21:00:00 14.2 10 Sur 24 Sudeste 0 -- -- 90
2018-09-05 20:00:00 14.9 12 Sudeste 29 Sudeste 0 -- -- 87
2018-09-05 19:00:00 16.1 13 Sur 27 Sur 0 -- -- 84
2018-09-05 18:00:00 17.1 11 Sudeste 30 Este 0 -- -- 79
2018-09-05 17:00:00 18.4 13 Sudeste 30 Sudeste 0 -- -- 73
2018-09-05 16:00:00 17.7 15 Sudeste 31 Sur 0 -- -- 76
2018-09-05 15:00:00 16.4 13 Sur 24 Sur 0 -- -- 84
2018-09-05 14:00:00 14.6 3 Nordeste 15 Norte 0 -- -- 87
2018-09-05 13:00:00 15 3 Nordeste 14 Sudeste 0 -- -- 92
2018-09-05 12:00:00 14.5 6 Sudeste 17 Este 0.4 -- -- 92
2018-09-05 11:00:00 14.3 10 Sur 30 Sur 1 -- -- 91
2018-09-05 10:00:00 14.4 13 Sur 22 Sudeste 0.4 -- -- 92
2018-09-05 09:00:00 12.9 4 Sudeste 15 Sudeste 0 -- -- 95
2018-09-05 08:00:00 12.1 4 Sur 16 Este 0.2 -- -- 94
2018-09-05 07:00:00 12.1 14 Sudeste 24 Sudeste 2.4 -- -- 94
2018-09-05 06:00:00 12.7 9 Sur 20 Sur 0 -- -- 88
2018-09-05 05:00:00 12.3 8 Sur 19 Sur 0 -- -- 89
2018-09-05 04:00:00 12.4 7 Sudeste 17 Sudeste 0 -- -- 83
2018-09-05 03:00:00 12.5 9 Sur 20 Sur 0 -- -- 80
2018-09-05 02:00:00 12.7 6 Sudeste 15 Sudeste 0 -- -- 82
2018-09-05 01:00:00 13.7 5 Sur 18 Sur 0 -- -- 81
2018-09-05 00:00:00 14.1 8 Sur 17 Sur 0 -- -- 84
2018-09-04 23:00:00 14.4 7 Sudeste 20 Sur 0 -- -- 79
2018-09-04 22:00:00 14.9 13 Sur 27 Sur 0 -- -- 81
2018-09-04 21:00:00 15.3 11 Sudeste 33 Sur 0 -- -- 78
2018-09-04 20:00:00 16.6 16 Sur 34 Sur 0 -- -- 76
2018-09-04 19:00:00 19 13 Sudeste 32 Sudeste 0 -- -- 73
2018-09-04 18:00:00 20.3 17 Sudeste 33 Este 0 -- -- 65
2018-09-04 17:00:00 21.4 17 Sudeste 35 Sudeste 0 -- -- 60
2018-09-04 16:00:00 21.4 15 Sudeste 34 Sur 0 -- -- 58
2018-09-04 15:00:00 21.3 15 Sudeste 33 Sudeste 0 -- -- 58
2018-09-04 14:00:00 20.3 14 Sudeste 36 Sudeste 0 -- -- 55
2018-09-04 13:00:00 20.5 17 Sudeste 38 Sudeste 0 -- -- 50
2018-09-04 12:00:00 19.3 17 Sudeste 33 Sudeste 0 -- -- 53
2018-09-04 11:00:00 17.8 18 Sudeste 30 Sudeste 0 -- -- 52
2018-09-04 10:00:00 15.4 13 Sur 24 Sudeste 0 -- -- 53
2018-09-04 09:00:00 12.4 5 Sudeste 17 Sur 0 -- -- 67
2018-09-04 08:00:00 11.5 11 Sur 19 Sudeste 0 -- -- 74
2018-09-04 07:00:00 11.6 6 Sur 22 Sur 0 -- -- 74
2018-09-04 06:00:00 12.6 13 Sudeste 32 Sudeste 0 -- -- 72
2018-09-04 05:00:00 12.7 14 Sudeste 26 Sur 0 -- -- 66
2018-09-04 04:00:00 11.5 8 Sur 12 Sur 0 -- -- 73
2018-09-04 03:00:00 12.4 4 Sudeste 19 Sur 0 -- -- 74
2018-09-04 02:00:00 13.5 12 Sur 22 Sur 0 -- -- 69
2018-09-04 01:00:00 13.7 9 Sur 21 Sur 0 -- -- 74
2018-09-04 00:00:00 13.2 8 Sudeste 19 Sur 0 -- -- 73
2018-09-03 23:00:00 14.3 11 Sur 23 Sur 0 -- -- 76
2018-09-03 22:00:00 15.7 6 Sur 15 Sur 0 -- -- 71
2018-09-03 21:00:00 16.7 6 Sudeste 23 Sudeste 0 -- -- 70
2018-09-03 20:00:00 18.6 11 Sudeste 32 Sudeste 0 -- -- 72
2018-09-03 19:00:00 20.4 19 Sur 40 Sur 0 -- -- 61
2018-09-03 18:00:00 21.8 19 Sur 42 Sudeste 0 -- -- 58
2018-09-03 17:00:00 22.4 21 Sur 41 Sur 0 -- -- 59
2018-09-03 16:00:00 22.6 23 Sur 40 Sur 0 -- -- 52
2018-09-03 15:00:00 22.8 18 Sur 38 Sudeste 0 -- -- 52
2018-09-03 14:00:00 21 14 Sudeste 27 Sudeste 0 -- -- 53
2018-09-03 13:00:00 18.8 9 Sur 26 Sudeste 0 -- -- 49
2018-09-03 12:00:00 19.2 9 Sur 19 Sur 0 -- -- 58
2018-09-03 11:00:00 18.6 8 Sudoeste 15 Sur 0.2 -- -- 66
2018-09-03 10:00:00 15.7 7 Sur 20 Sudeste 0 -- -- 77
2018-09-03 09:00:00 13.3 8 Sur 14 Sudeste 0 -- -- 89
2018-09-03 08:00:00 13.3 3 Noroeste 17 Sudeste 0 -- -- 95
2018-09-03 07:00:00 13.1 4 Noroeste 19 Noroeste 2.6 -- -- 96
2018-09-03 06:00:00 12.5 8 Este 18 Este 0 -- -- 92
2018-09-03 05:00:00 12 6 Este 17 Sudeste 0 -- -- 92
2018-09-03 04:00:00 13 0 Calma 12 Este 0 -- -- 92
2018-09-03 03:00:00 13.9 0 Calma 5 Sur 0 -- -- 90
2018-09-03 02:00:00 15.6 2 Este 18 Sudeste 0 -- -- 88
2018-09-03 01:00:00 17.1 9 Sur 18 Sur 0 -- -- 86
2018-09-03 00:00:00 17.6 6 Sur 20 Sur 0 -- -- 84
2018-09-02 23:00:00 18 3 Sudoeste 30 Sudeste 0 -- -- 85
2018-09-02 22:00:00 20 17 Sudeste 27 Sudeste 1.2 -- -- 79
2018-09-02 21:00:00 23.1 13 Sur 22 Sudeste 0 -- -- 59
2018-09-02 20:00:00 24.9 8 Sudeste 22 Sur 0 -- -- 52
2018-09-02 19:00:00 27.1 11 Sudeste 26 Sur 0 -- -- 48
2018-09-02 18:00:00 28.7 12 Sur 27 Este 0 -- -- 44
2018-09-02 17:00:00 28.8 10 Sudeste 30 Sudeste 0 -- -- 44
2018-09-02 16:00:00 31.5 5 Norte 18 Noroeste 0 -- -- 34
2018-09-02 15:00:00 30.6 6 Nordeste 21 Norte 0 -- -- 36
2018-09-02 14:00:00 29.4 8 Norte 17 Norte 0 -- -- 37
2018-09-02 13:00:00 27.2 7 Norte 16 Noroeste 0 -- -- 42
2018-09-02 12:00:00 23.3 4 Sur 12 Oeste 0 -- -- 52
2018-09-02 11:00:00 19.3 2 Sudoeste 9 Noroeste 0 -- -- 69
2018-09-02 10:00:00 14.9 2 Sudoeste 8 Este 0 -- -- 85
2018-09-02 09:00:00 10.8 2 Sudeste 8 Este 0 -- -- 96
2018-09-02 08:00:00 9.4 0 Calma 6 Este 0 -- -- 93
2018-09-02 07:00:00 10.2 2 Nordeste 13 Este 0 -- -- 94
2018-09-02 06:00:00 11.1 4 Nordeste 14 Este 0 -- -- 95
2018-09-02 05:00:00 11.8 10 Este 15 Este 0 -- -- 94
2018-09-02 04:00:00 12.8 5 Este 10 Nordeste 0 -- -- 94
2018-09-02 03:00:00 13.5 2 Nordeste 13 Sudeste 0 -- -- 91
2018-09-02 02:00:00 15.1 13 Este 17 Este 0 -- -- 93
2018-09-02 01:00:00 15.8 2 Este 6 Sudeste 0 -- -- 90
2018-09-02 00:00:00 17.6 2 Sudoeste 15 Sur 0 -- -- 85
2018-09-01 23:00:00 18.4 8 Sur 15 Sudeste 0 -- -- 84
2018-09-01 22:00:00 19.5 6 Sudeste 16 Sudeste 0 -- -- 77
2018-09-01 21:00:00 21.3 8 Sudeste 22 Sudeste 0 -- -- 70
2018-09-01 20:00:00 24 12 Sudeste 26 Sudeste 0 -- -- 60
2018-09-01 19:00:00 26 11 Sudeste 24 Sudeste 0 -- -- 48
2018-09-01 18:00:00 26.7 12 Sudeste 24 Sudeste 0 -- -- 44
2018-09-01 17:00:00 26.9 13 Sudeste 29 Sur 0 -- -- 46
2018-09-01 16:00:00 26.8 12 Sur 26 Sudeste 0 -- -- 46
2018-09-01 15:00:00 25.7 11 Sudoeste 23 Sudeste 0 -- -- 50
2018-09-01 14:00:00 24.3 12 Sur 24 Sur 0 -- -- 52
2018-09-01 13:00:00 22.9 12 Sur 20 Sur 0 -- -- 56
2018-09-01 12:00:00 20.4 8 Sudoeste 12 Sudoeste 0 -- -- 67
2018-09-01 11:00:00 16.8 5 Sudoeste 9 Sur 0 -- -- 83
2018-09-01 10:00:00 13.5 4 Oeste 7 Oeste 0 -- -- 95
2018-09-01 09:00:00 10.2 0 Calma 10 Este 0 -- -- 99
2018-09-01 08:00:00 9.2 2 Este 9 Este 0 -- -- 97
2018-09-01 07:00:00 9.8 6 Este 13 Este 0 -- -- 97
2018-09-01 06:00:00 9.9 2 Nordeste 9 Este 0 -- -- 95
2018-09-01 05:00:00 10.5 2 Este 10 Este 0 -- -- 95
2018-09-01 04:00:00 11.2 6 Este 11 Este 0 -- -- 95
2018-09-01 03:00:00 12.1 4 Este 9 Este 0 -- -- 93
2018-09-01 02:00:00 13.1 0 Calma 13 Sudeste 0 -- -- 90
2018-09-01 01:00:00 13.9 6 Sudeste 16 Sur 0 -- -- 88
2018-09-01 00:00:00 14.7 4 Sur 22 Sur 0 -- -- 88
2018-08-31 23:00:00 15.8 14 Sur 27 Sur 0 -- -- 85
2018-08-31 22:00:00 16.3 15 Sur 27 Sudeste 0 -- -- 86
2018-08-31 21:00:00 17.6 10 Sudeste 24 Sur 0 -- -- 81
2018-08-31 20:00:00 20 14 Sudeste 30 Sudeste 0 -- -- 71
2018-08-31 19:00:00 21.8 18 Sur 36 Sur 0 -- -- 66
2018-08-31 18:00:00 22.9 22 Sudeste 38 Sudeste 0 -- -- 59
2018-08-31 17:00:00 24 15 Sur 33 Sudeste 0 -- -- 55
2018-08-31 16:00:00 23.9 16 Sur 31 Sudeste 0 -- -- 54
2018-08-31 15:00:00 23.2 15 Sur 31 Sudeste 0 -- -- 56
2018-08-31 14:00:00 22.4 13 Sur 29 Sudeste 0 -- -- 54
2018-08-31 13:00:00 20.9 16 Sur 33 Sur 0 -- -- 58
2018-08-31 12:00:00 19.7 15 Sur 28 Sur 0 -- -- 60
2018-08-31 11:00:00 17.1 12 Sur 21 Sur 0 -- -- 73
2018-08-31 10:00:00 14.1 6 Sur 11 Sudoeste 0 -- -- 84
2018-08-31 09:00:00 9.8 5 Este 13 Este 0 -- -- 96
2018-08-31 08:00:00 8.6 0 Calma 12 Este 0 -- -- 96
2018-08-31 07:00:00 9.3 3 Este 10 Este 0 -- -- 96
2018-08-31 06:00:00 9.7 0 Calma 5 Sudeste 0 -- -- 94
2018-08-31 05:00:00 10.8 2 Sudeste 8 Sur 0 -- -- 92
2018-08-31 04:00:00 11.9 6 Sudeste 12 Sudoeste 0 -- -- 94
2018-08-31 03:00:00 12.5 8 Sudeste 18 Sudeste 0 -- -- 93
2018-08-31 02:00:00 12.6 5 Sudeste 18 Sur 0 -- -- 93
2018-08-31 01:00:00 13.5 8 Sur 26 Sudeste 0 -- -- 90
2018-08-31 00:00:00 14.1 13 Sur 27 Sur 0 -- -- 91
2018-08-30 23:00:00 14.8 14 Sur 26 Sur 0 -- -- 89
2018-08-30 22:00:00 15.3 12 Sudeste 27 Sur 0 -- -- 90
2018-08-30 21:00:00 15.9 15 Sur 31 Sudeste 0 -- -- 88
2018-08-30 20:00:00 17.4 17 Sur 35 Sudeste 0 -- -- 82
2018-08-30 19:00:00 19.3 21 Sur 36 Sur 0 -- -- 73
2018-08-30 18:00:00 20.8 17 Sudeste 38 Sudeste 0 -- -- 68
2018-08-30 17:00:00 21.2 19 Sur 36 Sudeste 0 -- -- 66
2018-08-30 16:00:00 21.9 19 Sudeste 33 Sudeste 0 -- -- 64
2018-08-30 15:00:00 21.9 18 Sur 39 Sudeste 0 -- -- 62
2018-08-30 14:00:00 21.7 14 Sur 25 Sudeste 0 -- -- 61
2018-08-30 13:00:00 20 12 Sur 22 Sudeste 0 -- -- 68
2018-08-30 12:00:00 17.6 9 Sur 16 Sur 0 -- -- 77
2018-08-30 11:00:00 15.2 9 Sur 17 Sur 0 -- -- 85
2018-08-30 10:00:00 13.8 7 Sur 15 Sudeste 0 -- -- 91
2018-08-30 09:00:00 13.4 7 Sur 17 Sur 0 -- -- 93
2018-08-30 08:00:00 12.8 4 Sur 15 Sur 0 -- -- 96
2018-08-30 07:00:00 12 5 Sudeste 14 Sudeste 0 -- -- 97
2018-08-30 06:00:00 11.5 7 Sur 14 Sudeste 0 -- -- 97
2018-08-30 05:00:00 11.5 3 Sudeste 15 Sudeste 0 -- -- 96
2018-08-30 04:00:00 11.4 3 Sudeste 8 Sudoeste 0 -- -- 95
2018-08-30 03:00:00 12.4 3 Sur 12 Sudeste 0 -- -- 93
2018-08-30 02:00:00 12.7 5 Sur 18 Sudeste 0 -- -- 94
2018-08-30 01:00:00 13.2 12 Sudeste 24 Sudeste 0 -- -- 93
2018-08-30 00:00:00 13.6 6 Sudeste 23 Sur 0 -- -- 93
2018-08-29 23:00:00 14.2 11 Sur 22 Sur 0 -- -- 92
2018-08-29 22:00:00 14.5 9 Sudeste 21 Sudeste 0 -- -- 89
2018-08-29 21:00:00 15.5 11 Sudeste 27 Sudeste 0 -- -- 85
2018-08-29 20:00:00 16.9 16 Sur 31 Sudeste 0 -- -- 81
2018-08-29 19:00:00 19.1 13 Sudeste 34 Sudeste 0 -- -- 74
2018-08-29 18:00:00 20 16 Sudeste 40 Sur 0 -- -- 72
2018-08-29 17:00:00 20.9 16 Sudeste 38 Sudeste 0 -- -- 69
2018-08-29 16:00:00 21.3 21 Sur 39 Sudeste 0 -- -- 68
2018-08-29 15:00:00 21.4 19 Sur 34 Sudeste 0 -- -- 68
2018-08-29 14:00:00 21.6 17 Sur 36 Sur 0 -- -- 69
2018-08-29 13:00:00 21.3 14 Sur 32 Sudeste 0 -- -- 68
2018-08-29 12:00:00 19.8 11 Sur 20 Sur 0 -- -- 76
2018-08-29 11:00:00 17.5 8 Sur 18 Sur 0 -- -- 85
2018-08-29 10:00:00 14.8 4 Sur 14 Este 0 -- -- 94
2018-08-29 09:00:00 11.3 6 Este 15 Este 0 -- -- 96
2018-08-29 08:00:00 10.4 3 Este 10 Este 0 -- -- 96
2018-08-29 07:00:00 10.8 8 Este 13 Este 0 -- -- 96
2018-08-29 06:00:00 11.3 5 Este 13 Este 0 -- -- 96
2018-08-29 05:00:00 12 10 Este 15 Sudeste 0 -- -- 94
2018-08-29 04:00:00 13.5 5 Sudeste 16 Sur 0 -- -- 95
2018-08-29 03:00:00 14.2 8 Sur 22 Sudeste 0 -- -- 91
2018-08-29 02:00:00 13.1 7 Sur 15 Sudeste 0 -- -- 96
2018-08-29 01:00:00 12.9 2 Este 9 Nordeste 0 -- -- 93
2018-08-29 00:00:00 13.6 2 Nordeste 10 Este 0 -- -- 92
2018-08-28 23:00:00 14.5 0 Calma 4 Sudeste 0 -- -- 91
2018-08-28 22:00:00 15.7 2 Nordeste 15 Sur 0 -- -- 89
2018-08-28 21:00:00 16.9 4 Sudoeste 13 Sur 0 -- -- 92
2018-08-28 20:00:00 17.4 2 Nordeste 18 Sur 0.2 -- -- 87
2018-08-28 19:00:00 18.3 8 Este 42 Norte 8.4 -- -- 73
2018-08-28 18:00:00 26.8 13 Norte 30 Norte 0 -- -- 41
2018-08-28 17:00:00 29.2 17 Norte 41 Oeste 0 -- -- 36
2018-08-28 16:00:00 29.2 14 Noroeste 41 Noroeste 0 -- -- 37
2018-08-28 15:00:00 28.8 19 Noroeste 43 Sudoeste 0 -- -- 36
2018-08-28 14:00:00 28.4 20 Oeste 40 Noroeste 0 -- -- 38
2018-08-28 13:00:00 27.5 15 Oeste 35 Oeste 0 -- -- 41
2018-08-28 12:00:00 25.4 11 Oeste 20 Oeste 0 -- -- 44
2018-08-28 11:00:00 22.3 4 Sur 10 Sur 0 -- -- 58
2018-08-28 10:00:00 18.6 3 Sudoeste 5 Sudoeste 0 -- -- 76
2018-08-28 09:00:00 14.4 2 Sudeste 12 Este 0 -- -- 85
2018-08-28 08:00:00 12.5 2 Nordeste 12 Este 0 -- -- 90
2018-08-28 07:00:00 12.5 9 Este 15 Este 0 -- -- 88
2018-08-28 06:00:00 12.8 13 Este 17 Este 0 -- -- 87
2018-08-28 05:00:00 13.3 6 Este 16 Este 0 -- -- 85
2018-08-28 04:00:00 13.6 3 Este 16 Nordeste 0 -- -- 86
2018-08-28 03:00:00 14.7 3 Nordeste 13 Este 0 -- -- 86
2018-08-28 02:00:00 15.9 8 Este 13 Este 0 -- -- 85
2018-08-28 01:00:00 18.1 4 Este 13 Sur 0 -- -- 85
2018-08-28 00:00:00 19 4 Sudeste 15 Sur 0 -- -- 83
2018-08-27 23:00:00 19.9 10 Sudeste 30 Sur 0 -- -- 80
2018-08-27 22:00:00 21.7 9 Sudeste 25 Sudeste 0 -- -- 73
2018-08-27 21:00:00 24.1 3 Sur 8 Norte 0 -- -- 52
2018-08-27 20:00:00 28.7 5 Noroeste 16 Nordeste 0 -- -- 33
2018-08-27 19:00:00 29.9 10 Noroeste 25 Noroeste 0 -- -- 31
2018-08-27 18:00:00 31 11 Noroeste 28 Noroeste 0 -- -- 30
2018-08-27 17:00:00 31.2 13 Oeste 34 Norte 0 -- -- 29
2018-08-27 16:00:00 30.8 10 Noroeste 23 Norte 0 -- -- 32
2018-08-27 15:00:00 29.5 8 Norte 19 Noroeste 0 -- -- 34
2018-08-27 14:00:00 27.8 9 Oeste 21 Sudoeste 0 -- -- 39
2018-08-27 13:00:00 24.6 3 Este 10 Sudoeste 0 -- -- 48
2018-08-27 12:00:00 22.2 5 Sudoeste 9 Sudoeste 0 -- -- 54
2018-08-27 11:00:00 19 4 Noroeste 10 Noroeste 0 -- -- 69
2018-08-27 10:00:00 15.7 3 Sudeste 10 Este 0 -- -- 83
2018-08-27 09:00:00 12 8 Este 11 Este 0 -- -- 97
2018-08-27 08:00:00 10.5 7 Este 14 Este 0 -- -- 98
2018-08-27 07:00:00 10.6 3 Este 17 Este 0 -- -- 98
2018-08-27 06:00:00 11 3 Nordeste 10 Este 0 -- -- 96
2018-08-27 05:00:00 11.2 0 Calma 16 Este 0 -- -- 94
2018-08-27 04:00:00 12 0 Calma 10 Este 0 -- -- 94
2018-08-27 03:00:00 12.7 5 Este 10 Este 0 -- -- 93
2018-08-27 02:00:00 13.7 3 Este 6 Este 0 -- -- 91
2018-08-27 01:00:00 15.2 0 Calma 11 Sur 0 -- -- 87
2018-08-27 00:00:00 16.5 6 Sur 18 Sudeste 0 -- -- 86
2018-08-26 23:00:00 17.3 12 Sur 20 Sur 0 -- -- 84
2018-08-26 22:00:00 18.1 9 Sur 23 Sur 0 -- -- 81
2018-08-26 21:00:00 20 12 Sur 27 Sur 0 -- -- 74
2018-08-26 20:00:00 22.3 19 Sur 32 Sudeste 0 -- -- 62
2018-08-26 19:00:00 25.3 18 Sudeste 32 Sudeste 0 -- -- 53
2018-08-26 18:00:00 27.8 5 Este 18 Norte 0 -- -- 38
2018-08-26 17:00:00 27.3 7 Noroeste 19 Noroeste 0 -- -- 40
2018-08-26 16:00:00 26.2 6 Norte 19 Norte 0 -- -- 44
2018-08-26 15:00:00 25 8 Norte 17 Oeste 0 -- -- 47
2018-08-26 14:00:00 23.1 9 Noroeste 29 Noroeste 0 -- -- 52
2018-08-26 13:00:00 20.6 8 Norte 19 Oeste 0 -- -- 59
2018-08-26 12:00:00 18.5 9 Oeste 18 Noroeste 0 -- -- 64
2018-08-26 11:00:00 16.1 5 Norte 11 Norte 0 -- -- 75
2018-08-26 10:00:00 14.3 6 Norte 13 Norte 0 -- -- 82
2018-08-26 09:00:00 11.3 2 Oeste 3 Oeste 0 -- -- 85
2018-08-26 08:00:00 10.3 0 Calma 6 Sudoeste 0 -- -- 87
2018-08-26 07:00:00 11.8 0 Calma 5 Sudoeste 0 -- -- 87
2018-08-26 06:00:00 12.1 0 Calma 8 Sur 0 -- -- 86
2018-08-26 05:00:00 12.2 3 Sudoeste 9 Sur 0 -- -- 86
2018-08-26 04:00:00 12.5 5 Sur 15 Sur 0 -- -- 86
2018-08-26 03:00:00 12.6 7 Sur 15 Sur 0 -- -- 87
2018-08-26 02:00:00 12.6 10 Sur 22 Sur 0 -- -- 88
2018-08-26 01:00:00 12.7 8 Sur 23 Sur 0 -- -- 89
2018-08-26 00:00:00 12.3 13 Sur 26 Sur 0 -- -- 91
2018-08-25 23:00:00 12.5 12 Sur 25 Sudeste 0 -- -- 89
2018-08-25 22:00:00 12.7 12 Sur 27 Sudeste 0 -- -- 89
2018-08-25 21:00:00 13.7 13 Sur 30 Sur 0 -- -- 82
2018-08-25 20:00:00 15 12 Sudeste 31 Sudeste 0 -- -- 78
2018-08-25 19:00:00 16.3 15 Sur 33 Sur 0 -- -- 73
2018-08-25 18:00:00 17.6 15 Sudeste 37 Sur 0 -- -- 69
2018-08-25 17:00:00 18.2 19 Sur 37 Sur 0 -- -- 66
2018-08-25 16:00:00 19 18 Sur 35 Sur 0 -- -- 62
2018-08-25 15:00:00 19.2 16 Sudeste 34 Sudoeste 0 -- -- 61
2018-08-25 14:00:00 18.5 14 Sur 31 Sudeste 0 -- -- 58
2018-08-25 13:00:00 17.9 14 Sur 37 Sur 0 -- -- 61
2018-08-25 12:00:00 17 13 Sur 31 Sudeste 0 -- -- 64
2018-08-25 11:00:00 15.5 15 Sur 35 Sudeste 0 -- -- 70
2018-08-25 10:00:00 13.2 14 Sur 25 Sur 0 -- -- 85
2018-08-25 09:00:00 8.8 3 Este 11 Este 0 -- -- 97
2018-08-25 08:00:00 7.1 8 Este 14 Este 0 -- -- 96
2018-08-25 07:00:00 8.6 6 Este 10 Este 0 -- -- 94
2018-08-25 06:00:00 10 6 Sudeste 10 Sudeste 0 -- -- 96
2018-08-25 05:00:00 10.1 4 Sudeste 6 Sudeste 0 -- -- 94
2018-08-25 04:00:00 11 4 Sudeste 14 Sudeste 0 -- -- 94
2018-08-25 03:00:00 11.3 7 Sur 22 Sudeste 0 -- -- 92
2018-08-25 02:00:00 11.9 9 Sur 22 Sur 0 -- -- 89
2018-08-25 01:00:00 12.5 10 Sur 25 Sur 0 -- -- 89
2018-08-25 00:00:00 12.9 10 Sur 28 Sur 0 -- -- 91